Terminal Aerodrome Forecast
Issued by NWS

Home | Current Version | Previous Version | Text Only | Print | Product List | Glossary On
Versions: 1 2 3 4 5 6 7 8 9 10 11 12 13 14 15 16 17 18 19 20
000
FTUS43 KGRR 180540
TAFJXN
TAF
KJXN 180540Z 1806/1906 16012G20KT 3SM -SHRA BR OVC035
     FM180800 19008KT 2SM -DZ BR OVC010
     FM181000 20006KT 2SM -DZ BR OVC005
     FM181300 VRB03KT 1SM -DZ BR OVC003
     FM182200 33012G21KT 3SM -RASN BR OVC007
     FM190100 31013G21KT 4SM -RASN OVC015=

USA.gov is the U.S. government's official web portal to all federal, state and local government web resources and services.